Hovedside
METAR-TAF:

METAR-TAF

Lufthavner :

East London, Sør-Afrika

breddegrad: 33-02S, lengdegrad: 027-50E, høyde over havet: 125 m

Gjeldene værobservasjon

Denne rapporten ble laget for 55 minutter siden, klokken 03:00 UTC
Vind 5 kt fra Nord, skiftende mellom Nord-nordvest og Nordøst
Temperatur 12°C
Luftfuktighet 88%
Trykk 1024 hPa
Sikt 10 km eller mer
ingen skyer under 1500 m og ingen bygeskyer

METAR: FAEL 140300Z 01005KT 330V050 CAVOK 12/10 Q1024

Tid: 05:55 (03:55 UTC)

Varsel

Denne rapporten ble laget for 55 minutter siden, klokken 03:00 UTC
Varsel gyldig fra 14. klokken 04 UTC til 14. klokken 15 UTC
Vind 7 kt fra Nord-nordøst
Sikt 10 km eller mer
ingen skyer under 1500 m og ingen bygeskyer
Blir
fra 14. klokken 08 UTC til 14. klokken 10 UTC
Vind 10 kt fra Øst-nordøst

TAF: FAEL 140300Z 1404/1415 02007KT CAVOK TX24/1411Z TN12/1404Z BECMG 1408/1410 06010KT

Værobservasjoner og værvarsel for over 4000 flyplasser (METAR- og TAF-rapporter).

Tilgjengelige stasjoner er representert av de røde og gule prikkene på kartet.

Hold musepekeren over prikken for å se navnet på stasjonen.

Klikk så for å se værobservasjoner og -varsler.

For å forandre kartet kan du klikke på den grønne knappen med svart kryss for å zoome inn, på den grønne knappen med strek for å zoome ut, eller på de grønne pilene for å se tilstøtende kart.


METAR-TAF: